createdAt,value
2024-02-23T00:00:59.583Z,6.58
2024-02-23T00:04:08.064Z,6.54
2024-02-23T00:06:37.033Z,6.53
2024-02-23T00:09:05.977Z,6.50
2024-02-23T00:11:35.588Z,6.43
2024-02-23T00:14:05.555Z,6.40
2024-02-23T00:16:34.325Z,6.35
2024-02-23T00:19:02.938Z,6.35
2024-02-23T00:21:31.620Z,6.33
2024-02-23T00:24:00.788Z,6.30
2024-02-23T00:26:31.088Z,6.27
2024-02-23T00:29:37.838Z,6.23
2024-02-23T00:32:44.202Z,6.22
2024-02-23T00:35:50.337Z,6.25
2024-02-23T00:38:20.954Z,6.29
2024-02-23T00:40:49.742Z,6.28
2024-02-23T00:43:18.439Z,6.29
2024-02-23T00:46:24.845Z,6.31
2024-02-23T00:49:30.805Z,6.33
2024-02-23T00:52:36.851Z,6.30
2024-02-23T00:55:09.625Z,6.34
2024-02-23T00:57:38.530Z,6.33
2024-02-23T01:00:44.595Z,6.33
2024-02-23T01:03:50.774Z,6.30
2024-02-23T01:06:56.728Z,6.31
2024-02-23T01:10:02.799Z,6.30
2024-02-23T01:12:33.148Z,6.31
2024-02-23T01:15:05.486Z,6.31
2024-02-23T01:18:12.260Z,6.34
2024-02-23T01:21:18.406Z,6.29
2024-02-23T01:23:47.912Z,6.27
2024-02-23T01:26:53.920Z,6.29
2024-02-23T01:30:00.175Z,6.30
2024-02-23T01:32:31.223Z,6.30
2024-02-23T01:35:00.704Z,6.29
2024-02-23T01:37:29.908Z,6.24
2024-02-23T01:40:36.729Z,6.23
2024-02-23T01:43:06.066Z,6.21
2024-02-23T01:46:12.552Z,6.27
2024-02-23T01:48:43.210Z,6.26
2024-02-23T01:51:49.369Z,6.30
2024-02-23T01:54:19.079Z,6.31
2024-02-23T01:57:39.764Z,6.31
2024-02-23T02:00:19.099Z,6.34
2024-02-23T02:03:25.345Z,6.36
2024-02-23T02:06:31.442Z,6.36
2024-02-23T02:09:02.033Z,6.39
2024-02-23T02:11:31.352Z,6.38
2024-02-23T02:14:00.912Z,6.41
2024-02-23T02:16:29.956Z,6.44
2024-02-23T02:18:59.430Z,6.44
2024-02-23T02:22:05.906Z,6.49
2024-02-23T02:25:11.667Z,6.49
2024-02-23T02:28:17.642Z,6.51
2024-02-23T02:31:23.536Z,6.53
2024-02-23T02:33:54.766Z,6.51
2024-02-23T02:37:00.800Z,6.51
2024-02-23T02:40:06.918Z,6.51
2024-02-23T02:42:36.506Z,6.52
2024-02-23T02:45:05.638Z,6.52
2024-02-23T02:47:34.247Z,6.56
2024-02-23T02:50:04.362Z,6.54
2024-02-23T02:52:33.697Z,6.54
2024-02-23T02:55:12.462Z,6.58
2024-02-23T02:57:41.432Z,6.64
2024-02-23T03:00:13.000Z,6.72
2024-02-23T03:02:42.307Z,6.75
2024-02-23T03:05:12.547Z,6.78
2024-02-23T03:07:40.920Z,6.79
2024-02-23T03:10:12.487Z,6.78
2024-02-23T03:12:41.694Z,6.83
2024-02-23T03:15:47.791Z,6.77
2024-02-23T03:18:55.672Z,6.78
2024-02-23T03:22:01.475Z,6.77
2024-02-23T03:25:09.729Z,6.75
2024-02-23T03:28:16.006Z,6.70
2024-02-23T03:31:22.264Z,6.66
2024-02-23T03:34:28.549Z,6.66
2024-02-23T03:37:34.525Z,6.65
2024-02-23T03:40:40.258Z,6.66
2024-02-23T03:43:10.795Z,6.61
2024-02-23T03:46:19.235Z,6.58
2024-02-23T03:49:25.911Z,6.58
2024-02-23T03:51:55.163Z,6.56
2024-02-23T03:54:23.791Z,6.55
2024-02-23T03:56:52.854Z,6.58
2024-02-23T03:59:23.074Z,6.57
2024-02-23T04:02:29.073Z,6.57
2024-02-23T04:05:34.917Z,6.54
2024-02-23T04:08:41.210Z,6.56
2024-02-23T04:11:10.900Z,6.60
2024-02-23T04:13:39.952Z,6.65
2024-02-23T04:16:47.910Z,6.70
2024-02-23T04:19:53.996Z,6.67
2024-02-23T04:23:00.368Z,6.76
2024-02-23T04:26:06.492Z,6.69
2024-02-23T04:28:37.512Z,6.78
2024-02-23T04:31:06.357Z,6.69
2024-02-23T04:33:35.384Z,6.68
2024-02-23T04:36:04.387Z,6.66
2024-02-23T04:38:33.365Z,6.73
2024-02-23T04:41:05.360Z,6.67
2024-02-23T04:43:34.854Z,6.77
2024-02-23T04:46:04.966Z,6.76
2024-02-23T04:48:34.135Z,6.67
2024-02-23T04:51:02.586Z,6.63
2024-02-23T04:53:31.645Z,6.62
2024-02-23T04:56:00.380Z,6.62
2024-02-23T04:58:29.285Z,6.62
2024-02-23T05:01:08.424Z,6.67
2024-02-23T05:03:37.380Z,6.69
2024-02-23T05:06:06.959Z,6.60
2024-02-23T05:08:35.810Z,6.59
2024-02-23T05:11:04.873Z,6.57
2024-02-23T05:13:34.444Z,6.53
2024-02-23T05:16:02.704Z,6.61
2024-02-23T05:18:32.987Z,6.57
2024-02-23T05:21:01.483Z,6.62
2024-02-23T05:23:30.599Z,6.55
2024-02-23T05:25:59.616Z,6.49
2024-02-23T05:28:29.130Z,6.62
2024-02-23T05:30:57.638Z,6.63
2024-02-23T05:33:26.526Z,6.62
2024-02-23T05:35:56.658Z,6.59
2024-02-23T05:38:25.450Z,6.53
2024-02-23T05:40:53.952Z,6.61
2024-02-23T05:43:22.719Z,6.47
2024-02-23T05:45:50.988Z,6.53
2024-02-23T05:48:22.812Z,6.54
2024-02-23T05:50:51.363Z,6.52
2024-02-23T05:53:21.670Z,6.55
2024-02-23T05:55:50.384Z,6.58
2024-02-23T05:58:31.016Z,6.37
2024-02-23T06:00:59.499Z,6.68
2024-02-23T06:03:28.284Z,6.70
2024-02-23T06:05:57.014Z,6.65
2024-02-23T06:08:27.824Z,6.62
2024-02-23T06:10:56.296Z,6.57
2024-02-23T06:13:24.665Z,6.58
2024-02-23T06:15:53.070Z,6.60
2024-02-23T06:18:21.214Z,6.58
2024-02-23T06:20:51.532Z,6.58
2024-02-23T06:23:20.328Z,6.61
2024-02-23T06:25:50.515Z,6.62
2024-02-23T06:28:19.219Z,6.64
2024-02-23T06:30:47.793Z,6.66
2024-02-23T06:33:17.275Z,6.64
2024-02-23T06:35:46.005Z,6.63
2024-02-23T06:38:15.157Z,6.57
2024-02-23T06:40:49.046Z,6.70
2024-02-23T06:43:23.573Z,6.68
2024-02-23T06:45:52.735Z,6.65
2024-02-23T06:48:22.023Z,6.65
2024-02-23T06:50:51.233Z,6.57
2024-02-23T06:53:20.396Z,6.59
2024-02-23T06:55:48.913Z,6.57
2024-02-23T06:58:18.109Z,6.62
2024-02-23T07:00:48.979Z,6.54
2024-02-23T07:03:18.256Z,6.53
2024-02-23T07:05:48.742Z,6.55
2024-02-23T07:08:17.482Z,6.60
2024-02-23T07:10:46.589Z,6.59
2024-02-23T07:13:15.709Z,6.63
2024-02-23T07:15:44.608Z,6.62
2024-02-23T07:18:14.285Z,6.57
2024-02-23T07:20:43.353Z,6.59
2024-02-23T07:23:12.334Z,6.56
2024-02-23T07:25:42.333Z,6.49
2024-02-23T07:28:10.772Z,6.51
2024-02-23T07:30:39.191Z,6.50
2024-02-23T07:33:08.198Z,6.49
2024-02-23T07:35:38.434Z,6.49
2024-02-23T07:38:07.383Z,6.48
2024-02-23T07:40:36.104Z,6.49
2024-02-23T07:43:05.214Z,6.51
2024-02-23T07:45:35.628Z,6.53
2024-02-23T07:48:05.729Z,6.41
2024-02-23T07:50:34.939Z,6.50
2024-02-23T07:53:05.633Z,6.51
2024-02-23T07:55:34.105Z,6.52
2024-02-23T07:58:03.538Z,6.51
2024-02-23T08:00:32.087Z,6.52
2024-02-23T08:03:01.649Z,6.53
2024-02-23T08:05:30.531Z,6.49
2024-02-23T08:08:00.688Z,6.57
2024-02-23T08:10:31.168Z,6.62
2024-02-23T08:13:00.150Z,6.55
2024-02-23T08:15:28.732Z,6.68
2024-02-23T08:17:58.280Z,6.69
2024-02-23T08:20:26.986Z,6.70
2024-02-23T08:22:55.959Z,6.73
2024-02-23T08:25:24.447Z,6.72
2024-02-23T08:27:54.653Z,6.73
2024-02-23T08:30:23.280Z,6.74
2024-02-23T08:32:53.541Z,6.77
2024-02-23T08:35:22.426Z,6.66
2024-02-23T08:37:51.597Z,6.72
2024-02-23T08:40:20.419Z,6.82
2024-02-23T08:42:51.235Z,6.85
2024-02-23T08:45:22.597Z,6.86
2024-02-23T08:47:51.224Z,6.86
2024-02-23T08:50:19.984Z,6.94
2024-02-23T08:52:48.366Z,6.99
2024-02-23T08:55:17.245Z,6.98
2024-02-23T08:57:45.751Z,6.90
2024-02-23T09:00:18.351Z,6.92
2024-02-23T09:02:48.767Z,6.89
2024-02-23T09:05:18.006Z,6.88
2024-02-23T09:07:49.395Z,6.84
2024-02-23T09:10:19.711Z,6.87
2024-02-23T09:12:48.450Z,6.89
2024-02-23T09:15:16.961Z,6.91
2024-02-23T09:17:46.072Z,6.88
2024-02-23T09:20:16.492Z,6.88
2024-02-23T09:22:45.304Z,6.91
2024-02-23T09:25:14.116Z,6.92
2024-02-23T09:27:44.936Z,6.96
2024-02-23T09:30:15.051Z,7.02
2024-02-23T09:32:44.581Z,7.03
2024-02-23T09:35:16.302Z,7.00
2024-02-23T09:37:46.349Z,6.99
2024-02-23T09:40:16.432Z,6.60
2024-02-23T09:42:45.013Z,6.99
2024-02-23T09:45:14.717Z,6.96
2024-02-23T09:47:44.517Z,7.02
2024-02-23T09:50:14.809Z,7.02
2024-02-23T09:52:43.739Z,7.08
2024-02-23T09:55:13.988Z,7.06
2024-02-23T09:57:43.617Z,7.09
2024-02-23T10:00:14.011Z,7.10
2024-02-23T10:02:43.361Z,7.17
2024-02-23T10:05:14.108Z,7.29
2024-02-23T10:07:43.787Z,7.42
2024-02-23T10:10:14.054Z,7.49
2024-02-23T10:12:42.911Z,7.58
2024-02-23T10:15:12.251Z,7.63
2024-02-23T10:17:41.075Z,7.66
2024-02-23T10:20:12.218Z,7.68
2024-02-23T10:22:40.648Z,7.73
2024-02-23T10:25:10.799Z,7.77
2024-02-23T10:27:40.673Z,7.79
2024-02-23T10:30:12.617Z,7.79
2024-02-23T10:32:42.249Z,7.76
2024-02-23T10:35:13.461Z,7.73
2024-02-23T10:37:44.986Z,7.70
2024-02-23T10:40:15.130Z,7.72
2024-02-23T10:42:51.389Z,7.67
2024-02-23T10:45:21.623Z,7.65
2024-02-23T10:47:51.151Z,7.65
2024-02-23T10:50:21.376Z,7.65
2024-02-23T10:52:50.183Z,7.63
2024-02-23T10:55:18.984Z,7.62
2024-02-23T10:57:50.913Z,7.69
2024-02-23T11:00:20.623Z,7.68
2024-02-23T11:02:53.156Z,7.55
2024-02-23T11:05:22.188Z,7.47
2024-02-23T11:07:52.463Z,7.43
2024-02-23T11:10:28.991Z,7.46
2024-02-23T11:13:02.806Z,7.50
2024-02-23T11:15:35.044Z,7.49
2024-02-23T11:18:03.936Z,7.47
2024-02-23T11:20:37.531Z,7.51
2024-02-23T11:23:16.600Z,7.49
2024-02-23T11:25:45.038Z,7.43
2024-02-23T11:28:26.994Z,7.35
2024-02-23T11:30:56.063Z,7.29
2024-02-23T11:33:31.558Z,7.29
2024-02-23T11:36:10.463Z,7.23
2024-02-23T11:38:39.204Z,7.22
2024-02-23T11:41:07.666Z,7.19
2024-02-23T11:43:38.559Z,7.13
2024-02-23T11:46:07.216Z,7.07
2024-02-23T11:48:36.906Z,7.00
2024-02-23T11:51:05.972Z,7.00
2024-02-23T11:53:35.313Z,6.94
2024-02-23T11:56:04.763Z,7.01
2024-02-23T11:58:33.560Z,7.00
2024-02-23T12:01:04.096Z,7.01
2024-02-23T12:03:34.331Z,6.99
2024-02-23T12:06:03.991Z,7.00
2024-02-23T12:08:39.218Z,6.97
2024-02-23T12:11:10.372Z,6.99
2024-02-23T12:13:39.500Z,6.98
2024-02-23T12:16:10.871Z,6.95
2024-02-23T12:18:39.474Z,6.92
2024-02-23T12:21:10.203Z,6.93
2024-02-23T12:23:45.887Z,6.91
2024-02-23T12:26:16.857Z,6.93
2024-02-23T12:28:46.942Z,6.82
2024-02-23T12:31:17.312Z,6.87
2024-02-23T12:33:49.840Z,6.85
2024-02-23T12:36:18.992Z,6.84
2024-02-23T12:38:47.796Z,6.83
2024-02-23T12:41:17.508Z,6.86
2024-02-23T12:43:48.637Z,6.87
2024-02-23T12:46:18.968Z,6.90
2024-02-23T12:48:47.323Z,6.88
2024-02-23T12:51:16.349Z,6.90
2024-02-23T12:53:45.298Z,6.88
2024-02-23T12:56:17.691Z,6.84
2024-02-23T12:58:47.165Z,6.81
2024-02-23T13:01:16.142Z,6.83
2024-02-23T13:03:46.296Z,6.76
2024-02-23T13:06:15.422Z,6.75
2024-02-23T13:08:44.637Z,6.73
2024-02-23T13:11:13.562Z,6.61
2024-02-23T13:13:43.989Z,6.39
2024-02-23T13:16:16.432Z,6.45
2024-02-23T13:18:48.214Z,6.43
2024-02-23T13:21:17.267Z,6.38
2024-02-23T13:23:45.739Z,6.35
2024-02-23T13:26:15.924Z,6.32
2024-02-23T13:28:45.631Z,6.28
2024-02-23T13:31:15.059Z,6.22
2024-02-23T13:33:43.680Z,6.25
2024-02-23T13:36:17.318Z,6.25
2024-02-23T13:38:46.525Z,6.22
2024-02-23T13:41:15.571Z,6.17
2024-02-23T13:43:43.771Z,6.18
2024-02-23T13:46:12.316Z,6.20
2024-02-23T13:48:40.837Z,6.19
2024-02-23T13:51:09.629Z,6.22
2024-02-23T13:53:39.450Z,6.23
2024-02-23T13:56:08.293Z,6.20
2024-02-23T13:58:36.522Z,6.19
2024-02-23T14:01:05.372Z,6.19
2024-02-23T14:03:34.727Z,6.13
2024-02-23T14:06:03.684Z,6.17
2024-02-23T14:08:34.874Z,6.17
2024-02-23T14:11:06.898Z,6.14
2024-02-23T14:13:36.312Z,6.16
2024-02-23T14:16:06.483Z,6.20
2024-02-23T14:18:38.487Z,6.23
2024-02-23T14:21:07.470Z,6.28
2024-02-23T14:23:36.331Z,6.25
2024-02-23T14:26:06.825Z,6.30
2024-02-23T14:28:35.364Z,6.28
2024-02-23T14:31:08.421Z,6.28
2024-02-23T14:33:36.897Z,6.23
2024-02-23T14:36:06.317Z,6.27
2024-02-23T14:38:36.073Z,6.15
2024-02-23T14:41:10.396Z,6.00
2024-02-23T14:43:42.581Z,5.96
2024-02-23T14:46:11.657Z,5.92
2024-02-23T14:48:40.765Z,5.95
2024-02-23T14:51:10.768Z,5.97
2024-02-23T14:53:40.146Z,5.99
2024-02-23T14:56:11.214Z,6.01
2024-02-23T14:58:40.191Z,6.03
2024-02-23T15:01:10.005Z,6.01
2024-02-23T15:03:38.710Z,5.95
2024-02-23T15:06:09.835Z,5.89
2024-02-23T15:08:38.618Z,5.81
2024-02-23T15:11:07.661Z,5.78
2024-02-23T15:13:37.790Z,5.71
2024-02-23T15:16:06.482Z,5.65
2024-02-23T15:18:34.805Z,5.66
2024-02-23T15:21:03.509Z,5.72
2024-02-23T15:23:32.113Z,5.75
2024-02-23T15:26:07.299Z,5.75
2024-02-23T15:28:42.174Z,5.73
2024-02-23T15:31:10.935Z,5.70
2024-02-23T15:33:40.860Z,5.60
2024-02-23T15:36:10.536Z,5.52
2024-02-23T15:38:39.539Z,5.48
2024-02-23T15:41:08.407Z,5.38
2024-02-23T15:43:37.394Z,5.33
2024-02-23T15:46:07.382Z,5.20
2024-02-23T15:48:37.608Z,5.29
2024-02-23T15:51:14.887Z,5.27
2024-02-23T15:53:53.192Z,5.25
2024-02-23T15:56:21.972Z,5.27
2024-02-23T15:58:50.486Z,5.28
2024-02-23T16:01:20.540Z,5.23
2024-02-23T16:03:49.405Z,5.15
2024-02-23T16:06:18.468Z,5.09
2024-02-23T16:08:49.903Z,5.03
2024-02-23T16:11:18.997Z,4.95
2024-02-23T16:13:47.972Z,4.85
2024-02-23T16:16:16.542Z,4.84
2024-02-23T16:18:46.608Z,4.71
2024-02-23T16:21:17.577Z,4.75
2024-02-23T16:23:46.985Z,4.75
2024-02-23T16:26:16.743Z,4.69
2024-02-23T16:28:46.082Z,4.63
2024-02-23T16:31:15.796Z,4.58
2024-02-23T16:33:45.039Z,4.25
2024-02-23T16:36:17.398Z,4.46
2024-02-23T16:38:47.782Z,4.42
2024-02-23T16:41:16.818Z,4.37
2024-02-23T16:43:45.850Z,4.36
2024-02-23T16:46:14.772Z,4.33
2024-02-23T16:48:44.268Z,4.35
2024-02-23T16:51:15.047Z,4.24
2024-02-23T16:53:43.829Z,4.18
2024-02-23T16:56:12.391Z,4.21
2024-02-23T16:58:40.777Z,4.20
2024-02-23T17:01:09.917Z,4.19
2024-02-23T17:03:39.289Z,4.13
2024-02-23T17:06:07.658Z,3.96
2024-02-23T17:08:37.654Z,3.96
2024-02-23T17:11:07.699Z,3.59
2024-02-23T17:13:36.502Z,3.94
2024-02-23T17:16:05.590Z,3.91
2024-02-23T17:18:36.045Z,3.88
2024-02-23T17:21:06.122Z,3.96
2024-02-23T17:23:34.654Z,4.01
2024-02-23T17:26:05.969Z,4.07
2024-02-23T17:28:35.044Z,4.11
2024-02-23T17:31:03.475Z,4.10
2024-02-23T17:33:32.114Z,4.09
2024-02-23T17:36:00.392Z,3.99
2024-02-23T17:38:29.548Z,3.99
2024-02-23T17:40:58.571Z,4.00
2024-02-23T17:43:28.628Z,4.00
2024-02-23T17:45:56.932Z,3.96
2024-02-23T17:48:25.516Z,3.94
2024-02-23T17:50:54.305Z,3.97
2024-02-23T17:53:23.191Z,3.97
2024-02-23T17:55:54.923Z,4.02
2024-02-23T17:58:23.409Z,3.97
2024-02-23T18:00:53.111Z,3.96
2024-02-23T18:03:21.777Z,3.90
2024-02-23T18:05:50.374Z,3.91
2024-02-23T18:08:19.172Z,3.93
2024-02-23T18:10:47.469Z,3.83
2024-02-23T18:13:19.031Z,3.89
2024-02-23T18:15:47.680Z,3.78
2024-02-23T18:18:21.366Z,3.67
2024-02-23T18:20:50.324Z,3.63
2024-02-23T18:23:19.014Z,3.63
2024-02-23T18:25:47.548Z,3.70
2024-02-23T18:28:16.166Z,3.71
2024-02-23T18:30:44.684Z,3.57
2024-02-23T18:33:13.696Z,3.63
2024-02-23T18:35:44.071Z,3.57
2024-02-23T18:38:13.029Z,3.62
2024-02-23T18:40:43.613Z,3.63
2024-02-23T18:43:12.553Z,3.64
2024-02-23T18:45:41.541Z,3.67
2024-02-23T18:48:10.393Z,3.72
2024-02-23T18:50:39.084Z,3.77
2024-02-23T18:53:10.171Z,3.77
2024-02-23T18:55:39.266Z,3.75
2024-02-23T18:58:09.166Z,3.77
2024-02-23T19:00:37.934Z,3.68
2024-02-23T19:03:06.982Z,3.77
2024-02-23T19:05:35.921Z,3.73
2024-02-23T19:08:05.108Z,3.67
2024-02-23T19:10:35.424Z,3.60
2024-02-23T19:13:03.968Z,3.57
2024-02-23T19:15:33.690Z,3.51
2024-02-23T19:18:03.028Z,3.52
2024-02-23T19:20:31.961Z,3.41
2024-02-23T19:23:01.920Z,3.35
2024-02-23T19:25:30.983Z,3.36
2024-02-23T19:28:01.582Z,3.35
2024-02-23T19:30:30.495Z,3.35
2024-02-23T19:32:59.638Z,3.32
2024-02-23T19:35:28.201Z,3.27
2024-02-23T19:37:59.407Z,3.19
2024-02-23T19:40:28.545Z,3.19
2024-02-23T19:42:57.350Z,3.18
2024-02-23T19:45:27.950Z,3.24
2024-02-23T19:47:56.740Z,3.12
2024-02-23T19:50:26.282Z,3.17
2024-02-23T19:52:55.253Z,3.19
2024-02-23T19:55:26.591Z,3.16
2024-02-23T19:57:56.024Z,3.14
2024-02-23T20:00:25.081Z,3.18
2024-02-23T20:02:56.501Z,3.18
2024-02-23T20:05:27.219Z,3.13
2024-02-23T20:07:56.103Z,3.05
2024-02-23T20:10:24.606Z,2.83
2024-02-23T20:12:53.590Z,3.11
2024-02-23T20:15:41.926Z,3.10
2024-02-23T20:18:13.342Z,3.08
2024-02-23T20:20:42.498Z,3.11
2024-02-23T20:23:10.875Z,3.07
2024-02-23T20:25:43.413Z,3.06
2024-02-23T20:28:11.923Z,2.95
2024-02-23T20:30:40.654Z,2.90
2024-02-23T20:33:09.967Z,2.93
2024-02-23T20:35:40.179Z,2.90
2024-02-23T20:38:09.295Z,2.87
2024-02-23T20:40:38.082Z,2.78
2024-02-23T20:43:06.866Z,2.78
2024-02-23T20:45:35.412Z,2.75
2024-02-23T20:48:04.962Z,2.74
2024-02-23T20:50:33.443Z,2.69
2024-02-23T20:53:03.799Z,2.66
2024-02-23T20:55:32.314Z,2.69
2024-02-23T20:58:02.032Z,2.62
2024-02-23T21:00:30.767Z,2.71
2024-02-23T21:02:59.942Z,2.66
2024-02-23T21:05:28.880Z,2.62
2024-02-23T21:07:57.915Z,2.57
2024-02-23T21:10:28.042Z,2.62
2024-02-23T21:12:56.704Z,2.62
2024-02-23T21:15:25.917Z,2.63
2024-02-23T21:17:54.662Z,2.73
2024-02-23T21:20:24.122Z,2.78
2024-02-23T21:22:52.810Z,2.81
2024-02-23T21:25:23.534Z,2.81
2024-02-23T21:27:53.873Z,2.85
2024-02-23T21:30:23.047Z,2.87
2024-02-23T21:32:52.572Z,2.73
2024-02-23T21:35:25.641Z,2.67
2024-02-23T21:37:54.816Z,2.54
2024-02-23T21:40:23.872Z,2.65
2024-02-23T21:42:54.339Z,2.68
2024-02-23T21:45:23.165Z,2.72
2024-02-23T21:47:52.374Z,2.65
2024-02-23T21:50:22.920Z,2.62
2024-02-23T21:52:51.765Z,2.64
2024-02-23T21:55:22.870Z,2.56
2024-02-23T21:57:51.691Z,2.53
2024-02-23T22:00:23.238Z,2.48
2024-02-23T22:02:51.800Z,2.52
2024-02-23T22:05:21.570Z,2.58
2024-02-23T22:07:50.192Z,2.62
2024-02-23T22:10:19.395Z,2.63
2024-02-23T22:12:47.786Z,2.57
2024-02-23T22:15:17.350Z,2.50
2024-02-23T22:17:47.456Z,2.38
2024-02-23T22:20:16.171Z,2.39
2024-02-23T22:22:45.006Z,2.37
2024-02-23T22:25:13.646Z,2.32
2024-02-23T22:27:44.920Z,2.31
2024-02-23T22:30:13.914Z,2.22
2024-02-23T22:32:42.794Z,2.21
2024-02-23T22:35:15.537Z,2.24
2024-02-23T22:37:44.220Z,2.28
2024-02-23T22:40:15.305Z,2.24
2024-02-23T22:42:43.716Z,2.27
2024-02-23T22:45:12.992Z,2.25
2024-02-23T22:47:42.190Z,2.24
2024-02-23T22:50:12.951Z,2.27
2024-02-23T22:52:41.799Z,2.30
2024-02-23T22:55:10.858Z,2.30
2024-02-23T22:57:40.106Z,2.29
2024-02-23T23:00:11.991Z,2.33
2024-02-23T23:02:41.529Z,2.07
2024-02-23T23:05:11.542Z,2.33
2024-02-23T23:07:42.190Z,2.38
2024-02-23T23:10:11.707Z,2.36
2024-02-23T23:12:40.610Z,2.35
2024-02-23T23:15:28.310Z,2.20
2024-02-23T23:17:57.882Z,2.09
2024-02-23T23:20:26.768Z,2.15
2024-02-23T23:22:57.533Z,2.12
2024-02-23T23:25:29.477Z,2.14
2024-02-23T23:27:58.423Z,2.14
2024-02-23T23:30:27.121Z,2.12
2024-02-23T23:32:56.515Z,2.05
2024-02-23T23:35:25.276Z,2.09
2024-02-23T23:37:53.780Z,2.12
2024-02-23T23:40:24.184Z,2.10
2024-02-23T23:42:54.815Z,2.14
2024-02-23T23:45:24.007Z,2.16
2024-02-23T23:47:52.737Z,2.11
2024-02-23T23:50:21.981Z,2.02
2024-02-23T23:52:50.911Z,1.99
2024-02-23T23:55:20.802Z,2.01
2024-02-23T23:57:50.986Z,2.01
